Time;durP1;ratioP1;P1;durP2;ratioP2;P2;SDS_P1;SDS_P2;PMS_P1;PMS_P2;Temp;Humidity;BMP_temperature;BMP_pressure;BME280_temperature;BME280_humidity;BME280_pressure;Samples;Min_cycle;Max_cycle;Signal;HPM_P1;HPM_P2
2023/05/21 00:00:24;;;;;;;13.43;9.40;;;;;;;;;;5036823;28;20037;-79
2023/05/21 00:02:50;;;;;;;12.95;8.88;;;;;;;;;;5029985;28;20795;-79
2023/05/21 00:05:17;;;;;;;16.23;9.10;;;;;;;;;;5022713;28;20146;-80
2023/05/21 00:07:43;;;;;;;11.85;9.15;;;;;;;;;;5039438;28;20055;-80
2023/05/21 00:10:08;;;;;;;14.98;9.25;;;;;;;;;;5037818;28;20041;-79
2023/05/21 00:12:34;;;;;;;13.48;9.27;;;;;;;;;;5036350;28;20040;-78
2023/05/21 00:15:00;;;;;;;13.30;9.73;;;;;;;;;;5036974;28;20040;-79
2023/05/21 00:17:27;;;;;;;12.50;8.95;;;;;;;;;;5054422;28;20029;-79
2023/05/21 00:19:52;;;;;;;13.77;9.10;;;;;;;;;;5039531;28;20032;-79
2023/05/21 00:22:19;;;;;;;12.68;9.02;;;;;;;;;;5021307;28;20040;-79
2023/05/21 00:24:44;;;;;;;12.75;9.48;;;;;;;;;;5045575;28;20064;-79
2023/05/21 00:27:11;;;;;;;12.57;8.80;;;;;;;;;;5034239;28;20574;-79
2023/05/21 00:29:36;;;;;;;14.35;9.70;;;;;;;;;;5053984;28;20516;-79
2023/05/21 00:32:01;;;;;;;16.75;9.45;;;;;;;;;;5034655;28;20037;-79
2023/05/21 00:34:28;;;;;;;15.77;10.48;;;;;;;;;;5051807;28;20489;-79
2023/05/21 00:36:56;;;;;;;14.45;9.77;;;;;;;;;;5033845;28;20408;-79
2023/05/21 00:39:22;;;;;;;15.82;9.93;;;;;;;;;;5033408;28;20025;-79
2023/05/21 00:41:48;;;;;;;18.73;9.60;;;;;;;;;;5034168;28;20029;-79
2023/05/21 00:44:15;;;;;;;13.75;9.75;;;;;;;;;;5035078;28;20051;-79
2023/05/21 00:46:43;;;;;;;16.20;10.93;;;;;;;;;;5036931;28;20496;-79
2023/05/21 00:49:09;;;;;;;14.27;9.93;;;;;;;;;;5035385;28;20045;-80
2023/05/21 00:51:35;;;;;;;14.93;9.93;;;;;;;;;;5022969;28;20036;-79
2023/05/21 00:54:00;;;;;;;13.43;10.07;;;;;;;;;;5033752;28;20330;-79
2023/05/21 00:56:26;;;;;;;14.30;10.55;;;;;;;;;;5038628;28;20047;-79
2023/05/21 00:58:52;;;;;;;14.23;10.43;;;;;;;;;;5052562;28;20388;-79
2023/05/21 01:01:18;;;;;;;14.55;10.25;;;;;;;;;;5021087;28;20508;-79
2023/05/21 01:03:43;;;;;;;16.42;9.60;;;;;;;;;;5023200;28;20025;-79
2023/05/21 01:06:10;;;;;;;12.85;9.82;;;;;;;;;;5021762;28;20090;-79
2023/05/21 01:08:36;;;;;;;16.73;11.27;;;;;;;;;;5022581;28;20472;-79
2023/05/21 01:11:05;;;;;;;14.50;10.45;;;;;;;;;;5035036;28;20043;-79
2023/05/21 01:13:32;;;;;;;13.15;9.73;;;;;;;;;;5039058;28;20036;-79
2023/05/21 01:15:58;;;;;;;14.10;9.88;;;;;;;;;;5034426;28;20496;-79
2023/05/21 01:18:24;;;;;;;15.05;9.80;;;;;;;;;;5032045;28;20032;-79
2023/05/21 01:20:51;;;;;;;13.23;9.68;;;;;;;;;;5043667;28;20408;-79
2023/05/21 01:23:17;;;;;;;15.45;9.80;;;;;;;;;;5036730;28;20036;-79
2023/05/21 01:25:43;;;;;;;15.68;10.30;;;;;;;;;;5035915;28;20617;-79
2023/05/21 01:28:08;;;;;;;12.82;9.30;;;;;;;;;;5035708;28;20479;-79
2023/05/21 01:30:34;;;;;;;14.23;10.13;;;;;;;;;;5028050;28;20051;-79
2023/05/21 01:32:59;;;;;;;13.60;9.43;;;;;;;;;;5035957;28;20045;-78
2023/05/21 01:35:28;;;;;;;18.15;9.25;;;;;;;;;;5040692;28;20124;-78
2023/05/21 01:38:04;;;;;;;15.80;10.13;;;;;;;;;;5021586;28;20572;-78
2023/05/21 01:40:51;;;;;;;13.68;9.45;;;;;;;;;;5049843;28;20052;-79
2023/05/21 01:43:17;;;;;;;;;;;;;;;;;;5031503;28;20036;-78
2023/05/21 01:45:43;;;;;;;13.45;9.73;;;;;;;;;;5034961;28;19919;-78
2023/05/21 01:48:10;;;;;;;12.73;9.07;;;;;;;;;;5052067;28;20037;-78
2023/05/21 01:50:36;;;;;;;15.35;10.50;;;;;;;;;;5034698;28;20037;-78
2023/05/21 01:53:04;;;;;;;15.43;10.48;;;;;;;;;;5028070;28;20037;-78
2023/05/21 01:55:30;;;;;;;14.20;10.00;;;;;;;;;;5033400;28;20389;-78
2023/05/21 01:57:56;;;;;;;14.90;10.35;;;;;;;;;;5034946;28;20040;-78
2023/05/21 02:00:23;;;;;;;13.70;9.98;;;;;;;;;;5016394;28;20036;-78
2023/05/21 02:02:49;;;;;;;15.82;10.00;;;;;;;;;;5028101;28;20115;-79
2023/05/21 02:05:15;;;;;;;17.50;11.18;;;;;;;;;;5021994;28;20115;-79
2023/05/21 02:07:42;;;;;;;15.10;10.57;;;;;;;;;;5034937;28;20464;-79
2023/05/21 02:10:08;;;;;;;15.65;10.70;;;;;;;;;;5023027;28;20122;-78
2023/05/21 02:12:33;;;;;;;15.20;10.25;;;;;;;;;;5035650;28;20079;-78
2023/05/21 02:14:59;;;;;;;12.88;9.68;;;;;;;;;;5032969;28;20172;-79
2023/05/21 02:17:25;;;;;;;16.98;11.05;;;;;;;;;;5024757;28;20189;-79
2023/05/21 02:19:50;;;;;;;16.40;11.18;;;;;;;;;;5038073;28;20036;-79
2023/05/21 02:22:16;;;;;;;16.23;11.13;;;;;;;;;;5049874;28;20033;-80
2023/05/21 02:24:41;;;;;;;20.70;11.68;;;;;;;;;;5057440;28;20676;-80
2023/05/21 02:27:09;;;;;;;16.45;10.90;;;;;;;;;;5058540;28;20396;-79
2023/05/21 02:29:35;;;;;;;15.38;10.98;;;;;;;;;;5033675;28;20039;-79
2023/05/21 02:32:00;;;;;;;14.68;10.63;;;;;;;;;;5039156;28;20492;-79
2023/05/21 02:34:25;;;;;;;14.60;10.65;;;;;;;;;;5045250;28;20040;-80
2023/05/21 02:36:51;;;;;;;16.30;10.90;;;;;;;;;;5037147;28;20043;-80
2023/05/21 02:39:18;;;;;;;18.27;11.30;;;;;;;;;;5038531;28;20029;-80
2023/05/21 02:41:44;;;;;;;16.65;11.73;;;;;;;;;;5055852;28;20526;-79
2023/05/21 02:44:10;;;;;;;18.90;11.40;;;;;;;;;;5056607;28;20037;-79
2023/05/21 02:46:35;;;;;;;16.60;11.63;;;;;;;;;;5038132;28;20032;-79
2023/05/21 02:49:01;;;;;;;16.38;12.02;;;;;;;;;;5037474;28;20044;-79
2023/05/21 02:51:26;;;;;;;16.63;11.57;;;;;;;;;;5055770;28;20136;-79
2023/05/21 02:53:52;;;;;;;17.50;11.73;;;;;;;;;;5039318;28;20052;-80
2023/05/21 02:56:17;;;;;;;16.88;11.45;;;;;;;;;;5053792;28;20037;-79
2023/05/21 02:58:42;;;;;;;18.08;11.60;;;;;;;;;;5038018;28;20033;-79
2023/05/21 03:01:08;;;;;;;16.80;11.25;;;;;;;;;;5058027;28;20037;-79
2023/05/21 03:03:33;;;;;;;16.25;11.90;;;;;;;;;;5040136;28;20508;-79
2023/05/21 03:05:59;;;;;;;17.92;12.05;;;;;;;;;;5041505;28;20059;-79
2023/05/21 03:08:25;;;;;;;17.95;12.07;;;;;;;;;;5060694;28;20054;-79
2023/05/21 03:10:50;;;;;;;17.48;13.13;;;;;;;;;;5053428;28;20041;-79
2023/05/21 03:13:16;;;;;;;20.92;13.32;;;;;;;;;;5048538;28;20052;-79
2023/05/21 03:15:42;;;;;;;18.63;13.30;;;;;;;;;;5056479;28;20752;-80
2023/05/21 03:18:09;;;;;;;19.42;12.73;;;;;;;;;;5039131;28;20492;-80
2023/05/21 03:20:34;;;;;;;18.30;12.65;;;;;;;;;;5055151;28;20033;-79
2023/05/21 03:23:02;;;;;;;18.08;13.23;;;;;;;;;;5055818;28;20037;-79
2023/05/21 03:25:28;;;;;;;19.30;14.00;;;;;;;;;;5056137;28;20105;-79
2023/05/21 03:27:53;;;;;;;19.50;13.60;;;;;;;;;;5041087;28;21164;-79
2023/05/21 03:30:19;;;;;;;18.75;12.82;;;;;;;;;;5026532;28;20033;-79
2023/05/21 03:32:45;;;;;;;20.27;13.50;;;;;;;;;;5037122;28;20029;-79
2023/05/21 03:35:10;;;;;;;19.50;12.98;;;;;;;;;;5023395;28;20090;-79
2023/05/21 03:37:36;;;;;;;18.83;13.30;;;;;;;;;;5042730;28;20873;-79
2023/05/21 03:40:02;;;;;;;19.02;12.95;;;;;;;;;;5036757;28;20098;-79
2023/05/21 03:42:27;;;;;;;19.40;13.40;;;;;;;;;;5039675;28;20028;-79
2023/05/21 03:44:53;;;;;;;20.30;13.55;;;;;;;;;;5036881;28;20055;-79
2023/05/21 03:47:18;;;;;;;19.33;13.65;;;;;;;;;;5039977;28;22882;-79
2023/05/21 03:49:43;;;;;;;19.92;14.23;;;;;;;;;;5036167;28;20115;-79
2023/05/21 03:52:09;;;;;;;18.33;13.75;;;;;;;;;;5028926;28;20033;-79
2023/05/21 03:54:34;;;;;;;19.20;14.15;;;;;;;;;;5043019;28;20044;-80
2023/05/21 03:57:00;;;;;;;21.25;14.45;;;;;;;;;;5037259;28;20048;-79
2023/05/21 03:59:25;;;;;;;18.00;13.25;;;;;;;;;;5037425;28;20107;-79
2023/05/21 04:01:51;;;;;;;19.17;13.77;;;;;;;;;;5055400;28;20032;-80
2023/05/21 04:04:16;;;;;;;19.52;13.88;;;;;;;;;;5032398;28;20381;-80
2023/05/21 04:06:43;;;;;;;19.30;14.00;;;;;;;;;;5025107;28;20037;-80
2023/05/21 04:09:08;;;;;;;20.17;13.33;;;;;;;;;;5039008;28;20041;-80
2023/05/21 04:11:34;;;;;;;20.90;14.38;;;;;;;;;;5020688;28;20533;-80
2023/05/21 04:14:00;;;;;;;21.05;13.40;;;;;;;;;;5038610;28;20044;-80
2023/05/21 04:16:25;;;;;;;20.33;14.48;;;;;;;;;;5054635;28;20381;-79
2023/05/21 04:18:51;;;;;;;21.35;13.68;;;;;;;;;;5034235;28;20029;-79
2023/05/21 04:21:16;;;;;;;18.48;14.27;;;;;;;;;;5036435;28;20174;-79
2023/05/21 04:23:41;;;;;;;19.05;13.48;;;;;;;;;;5034696;28;20033;-79
2023/05/21 04:26:07;;;;;;;20.88;14.27;;;;;;;;;;5034793;28;20535;-80
2023/05/21 04:28:34;;;;;;;20.05;13.65;;;;;;;;;;5055585;28;20076;-79
2023/05/21 04:30:59;;;;;;;17.60;12.23;;;;;;;;;;5044344;28;20072;-80
2023/05/21 04:33:24;;;;;;;17.95;12.82;;;;;;;;;;5036179;28;20510;-80
2023/05/21 04:35:50;;;;;;;18.55;13.27;;;;;;;;;;5038170;28;20040;-80
2023/05/21 04:38:19;;;;;;;17.20;13.35;;;;;;;;;;5038200;28;20044;-80
2023/05/21 04:40:49;;;;;;;19.67;13.45;;;;;;;;;;5036959;28;20025;-80
2023/05/21 04:43:15;;;;;;;17.45;12.98;;;;;;;;;;5043227;28;20059;-80
2023/05/21 04:45:41;;;;;;;19.42;13.43;;;;;;;;;;5052286;28;20033;-80
2023/05/21 04:48:07;;;;;;;17.35;13.10;;;;;;;;;;5039698;28;20550;-80
2023/05/21 04:50:32;;;;;;;18.80;13.07;;;;;;;;;;5035099;28;20040;-80
2023/05/21 04:52:58;;;;;;;18.83;13.20;;;;;;;;;;5033356;28;20057;-80
2023/05/21 04:55:24;;;;;;;18.27;13.18;;;;;;;;;;5031751;28;20057;-80
2023/05/21 04:57:51;;;;;;;19.58;13.55;;;;;;;;;;5019064;28;20114;-79
2023/05/21 05:00:16;;;;;;;19.83;13.32;;;;;;;;;;5033392;28;20851;-79
2023/05/21 05:02:42;;;;;;;21.38;13.40;;;;;;;;;;5034063;28;20150;-80
2023/05/21 05:05:07;;;;;;;17.55;13.35;;;;;;;;;;5032382;28;20037;-79
2023/05/21 05:07:33;;;;;;;19.40;13.63;;;;;;;;;;5034613;28;20484;-80
2023/05/21 05:09:58;;;;;;;19.50;13.32;;;;;;;;;;5033206;28;20037;-80
2023/05/21 05:12:24;;;;;;;17.58;13.13;;;;;;;;;;5034647;28;20065;-80
2023/05/21 05:14:49;;;;;;;18.90;13.60;;;;;;;;;;5032799;28;20037;-80
2023/05/21 05:17:15;;;;;;;20.77;13.50;;;;;;;;;;5035696;28;20520;-80
2023/05/21 05:19:40;;;;;;;21.17;12.88;;;;;;;;;;5022254;28;20389;-80
2023/05/21 05:22:06;;;;;;;17.05;12.55;;;;;;;;;;5029352;28;20519;-80
2023/05/21 05:24:31;;;;;;;18.77;12.90;;;;;;;;;;5031306;28;20477;-80
2023/05/21 05:26:57;;;;;;;18.80;13.55;;;;;;;;;;5034089;28;20176;-80
2023/05/21 05:29:22;;;;;;;18.50;12.95;;;;;;;;;;5032579;28;20053;-80
2023/05/21 05:31:47;;;;;;;19.88;13.57;;;;;;;;;;5025474;28;20028;-80
2023/05/21 05:34:13;;;;;;;19.02;13.30;;;;;;;;;;5019462;28;20046;-80
2023/05/21 05:36:38;;;;;;;17.50;12.73;;;;;;;;;;5032721;28;20029;-80
2023/05/21 05:39:04;;;;;;;17.40;12.60;;;;;;;;;;5030420;28;20041;-80
2023/05/21 05:41:29;;;;;;;17.23;12.70;;;;;;;;;;5033746;28;20033;-80
2023/05/21 05:43:55;;;;;;;16.85;12.20;;;;;;;;;;5019735;28;20052;-80
2023/05/21 05:46:20;;;;;;;17.90;13.00;;;;;;;;;;5032704;28;20049;-80
2023/05/21 05:48:46;;;;;;;17.83;13.27;;;;;;;;;;5030491;28;20084;-80
2023/05/21 05:51:11;;;;;;;15.20;11.98;;;;;;;;;;5033213;28;20034;-80
2023/05/21 05:53:37;;;;;;;17.02;12.80;;;;;;;;;;5040251;28;20516;-79
2023/05/21 05:56:02;;;;;;;16.55;12.35;;;;;;;;;;5032067;28;20040;-80
2023/05/21 05:58:29;;;;;;;15.68;11.98;;;;;;;;;;5032230;28;20389;-79
2023/05/21 06:00:54;;;;;;;16.45;12.63;;;;;;;;;;5030399;28;20037;-79
2023/05/21 06:03:19;;;;;;;16.17;12.18;;;;;;;;;;5016296;28;20041;-80
2023/05/21 06:05:45;;;;;;;21.48;12.52;;;;;;;;;;5032342;28;20037;-79
2023/05/21 06:08:10;;;;;;;17.75;12.95;;;;;;;;;;5034401;28;20036;-80
2023/05/21 06:10:36;;;;;;;15.82;12.60;;;;;;;;;;5031403;28;20362;-79
2023/05/21 06:13:01;;;;;;;16.23;12.13;;;;;;;;;;5031993;28;20041;-79
2023/05/21 06:15:27;;;;;;;14.82;12.02;;;;;;;;;;5017315;28;20469;-79
2023/05/21 06:17:52;;;;;;;17.05;12.48;;;;;;;;;;5032372;28;20045;-80
2023/05/21 06:20:17;;;;;;;19.52;12.65;;;;;;;;;;5024644;28;20038;-79
2023/05/21 06:22:43;;;;;;;16.30;11.60;;;;;;;;;;5035453;28;20029;-79
2023/05/21 06:25:09;;;;;;;16.77;12.00;;;;;;;;;;5019589;28;20060;-79
2023/05/21 06:27:35;;;;;;;17.13;13.10;;;;;;;;;;5039731;28;20029;-79
2023/05/21 06:30:00;;;;;;;16.20;11.20;;;;;;;;;;5031898;28;20049;-79
2023/05/21 06:32:25;;;;;;;16.23;12.40;;;;;;;;;;5016944;28;20061;-84
2023/05/21 06:34:51;;;;;;;15.98;11.55;;;;;;;;;;5040062;28;20071;-88
2023/05/21 06:37:19;;;;;;;16.40;12.00;;;;;;;;;;5033569;28;20029;-83
2023/05/21 06:39:45;;;;;;;15.32;11.07;;;;;;;;;;5035167;28;20396;-84
2023/05/21 06:42:10;;;;;;;15.07;11.43;;;;;;;;;;5030699;28;20033;-83
2023/05/21 06:44:36;;;;;;;15.18;11.30;;;;;;;;;;5031351;28;20041;-85
2023/05/21 06:47:01;;;;;;;17.30;11.52;;;;;;;;;;5027677;28;20417;-83
2023/05/21 06:49:26;;;;;;;14.10;11.18;;;;;;;;;;5015264;28;20037;-85
2023/05/21 06:51:52;;;;;;;14.95;11.02;;;;;;;;;;5020440;28;20098;-84
2023/05/21 06:54:17;;;;;;;15.00;11.35;;;;;;;;;;5049806;28;20048;-84
2023/05/21 06:56:43;;;;;;;15.05;11.27;;;;;;;;;;5049716;28;20044;-83
2023/05/21 06:59:09;;;;;;;14.68;11.35;;;;;;;;;;5030754;28;20412;-84
2023/05/21 07:01:35;;;;;;;16.52;11.10;;;;;;;;;;5030388;28;20476;-83
2023/05/21 07:04:00;;;;;;;14.13;10.25;;;;;;;;;;5022208;28;20025;-82
2023/05/21 07:06:25;;;;;;;14.98;10.18;;;;;;;;;;5028101;28;20029;-83
2023/05/21 07:08:51;;;;;;;13.45;10.45;;;;;;;;;;5040393;28;20082;-82
2023/05/21 07:11:16;;;;;;;16.65;10.15;;;;;;;;;;5039031;28;20123;-82
2023/05/21 07:13:41;;;;;;;14.48;10.68;;;;;;;;;;5054534;28;20043;-80
2023/05/21 07:16:07;;;;;;;14.43;10.25;;;;;;;;;;5039234;28;20045;-81
2023/05/21 07:18:32;;;;;;;12.68;9.63;;;;;;;;;;5037690;28;20429;-81
2023/05/21 07:20:58;;;;;;;15.52;9.80;;;;;;;;;;5037416;28;20398;-82
2023/05/21 07:23:23;;;;;;;13.98;10.23;;;;;;;;;;5034126;28;20032;-81
2023/05/21 07:25:49;;;;;;;13.35;9.73;;;;;;;;;;5052827;28;20207;-81
2023/05/21 07:28:14;;;;;;;12.85;9.13;;;;;;;;;;5054335;28;20431;-81
2023/05/21 07:30:40;;;;;;;12.57;8.80;;;;;;;;;;5028609;28;20426;-81
2023/05/21 07:33:05;;;;;;;13.00;9.63;;;;;;;;;;5046803;28;20573;-81
2023/05/21 07:35:30;;;;;;;11.63;8.63;;;;;;;;;;5054497;28;20029;-81
2023/05/21 07:37:56;;;;;;;13.68;9.40;;;;;;;;;;5022441;28;20124;-80
2023/05/21 07:40:21;;;;;;;11.43;8.68;;;;;;;;;;5052988;28;20032;-80
2023/05/21 07:42:46;;;;;;;11.50;8.18;;;;;;;;;;5039486;28;20036;-81
2023/05/21 07:45:12;;;;;;;10.70;8.45;;;;;;;;;;5036138;28;20062;-80
2023/05/21 07:47:37;;;;;;;10.48;7.93;;;;;;;;;;5040801;28;20040;-80
2023/05/21 07:50:03;;;;;;;10.70;8.25;;;;;;;;;;5039182;28;20408;-76
2023/05/21 07:52:28;;;;;;;13.75;8.32;;;;;;;;;;5054329;28;20120;-76
2023/05/21 07:54:54;;;;;;;11.00;8.25;;;;;;;;;;5044287;28;20493;-76
2023/05/21 07:57:20;;;;;;;9.95;8.20;;;;;;;;;;5036770;28;20094;-76
2023/05/21 07:59:45;;;;;;;11.18;8.30;;;;;;;;;;5029082;28;20025;-76
2023/05/21 08:02:11;;;;;;;10.55;8.50;;;;;;;;;;5035195;28;20573;-76
2023/05/21 08:04:37;;;;;;;11.50;7.97;;;;;;;;;;5040656;28;20036;-76
2023/05/21 08:07:02;;;;;;;11.35;7.78;;;;;;;;;;5033866;28;20734;-76
2023/05/21 08:09:28;;;;;;;11.05;7.78;;;;;;;;;;5037290;28;20025;-77
2023/05/21 08:11:53;;;;;;;9.13;7.13;;;;;;;;;;5040068;28;20124;-77
2023/05/21 08:14:19;;;;;;;10.00;7.65;;;;;;;;;;5022067;28;20096;-77
2023/05/21 08:16:45;;;;;;;9.35;7.38;;;;;;;;;;5033683;28;20397;-77
2023/05/21 08:19:10;;;;;;;9.20;7.50;;;;;;;;;;5026802;28;20040;-79
2023/05/21 08:21:36;;;;;;;9.65;7.07;;;;;;;;;;5054545;28;20037;-77
2023/05/21 08:24:01;;;;;;;9.63;7.15;;;;;;;;;;5037822;28;20029;-76
2023/05/21 08:26:27;;;;;;;10.23;7.13;;;;;;;;;;5053202;28;20464;-77
2023/05/21 08:28:52;;;;;;;9.80;7.60;;;;;;;;;;5034515;28;20044;-77
2023/05/21 08:31:18;;;;;;;11.52;7.22;;;;;;;;;;5035247;28;20032;-79
2023/05/21 08:33:51;;;;;;;9.98;7.72;;;;;;;;;;5036468;28;20048;-77
2023/05/21 08:36:16;;;;;;;9.38;7.20;;;;;;;;;;5034902;28;20500;-77
2023/05/21 08:38:42;;;;;;;9.93;7.35;;;;;;;;;;5035977;28;20040;-79
2023/05/21 08:41:09;;;;;;;8.95;6.57;;;;;;;;;;5033880;28;20143;-74
2023/05/21 08:43:36;;;;;;;8.43;6.75;;;;;;;;;;5035833;28;20483;-76
2023/05/21 08:46:02;;;;;;;;;;;;;;;;;;5053635;28;20048;-75
2023/05/21 08:48:29;;;;;;;8.43;6.50;;;;;;;;;;5035083;28;19920;-75
2023/05/21 08:50:55;;;;;;;8.73;6.40;;;;;;;;;;5044005;28;20515;-75
2023/05/21 08:53:38;;;;;;;11.23;6.53;;;;;;;;;;5030832;28;20037;-85
2023/05/21 08:56:04;;;;;;;9.32;5.88;;;;;;;;;;5034059;28;20608;-77
2023/05/21 08:58:32;;;;;;;7.57;5.75;;;;;;;;;;5018443;28;20040;-79
2023/05/21 09:00:57;;;;;;;8.50;6.35;;;;;;;;;;5019940;28;20796;-77
2023/05/21 09:03:23;;;;;;;6.88;5.50;;;;;;;;;;5053422;28;20032;-78
2023/05/21 09:05:50;;;;;;;7.97;5.95;;;;;;;;;;5054183;28;20036;-76
2023/05/21 09:08:18;;;;;;;8.18;5.85;;;;;;;;;;5035644;28;20033;-76
2023/05/21 09:10:48;;;;;;;7.50;5.85;;;;;;;;;;5035822;28;20036;-77
2023/05/21 09:13:14;;;;;;;9.77;5.55;;;;;;;;;;5034034;28;20507;-76
2023/05/21 09:15:40;;;;;;;8.27;5.95;;;;;;;;;;5027092;28;20033;-77
2023/05/21 09:18:06;;;;;;;7.17;5.50;;;;;;;;;;5051212;28;20040;-78
2023/05/21 09:20:31;;;;;;;8.50;5.47;;;;;;;;;;5053391;28;20487;-76
2023/05/21 09:23:02;;;;;;;9.20;5.95;;;;;;;;;;5038718;28;20037;-78
2023/05/21 09:25:28;;;;;;;7.03;5.25;;;;;;;;;;5032358;28;20033;-76
2023/05/21 09:27:57;;;;;;;6.85;5.22;;;;;;;;;;5052049;28;20099;-77
2023/05/21 09:30:22;;;;;;;8.40;5.20;;;;;;;;;;5038860;28;20492;-77
2023/05/21 09:32:57;;;;;;;9.68;5.90;;;;;;;;;;5032926;28;20182;-80
2023/05/21 09:35:23;;;;;;;8.27;5.45;;;;;;;;;;5049109;28;20044;-75
2023/05/21 09:37:49;;;;;;;6.53;4.75;;;;;;;;;;5015983;28;20094;-78
2023/05/21 09:40:22;;;;;;;6.47;4.70;;;;;;;;;;5037882;28;20131;-81
2023/05/21 09:42:52;;;;;;;5.95;4.43;;;;;;;;;;5036766;28;20410;-76
2023/05/21 09:45:22;;;;;;;5.47;3.92;;;;;;;;;;5031253;28;20037;-78
2023/05/21 09:47:48;;;;;;;8.13;4.97;;;;;;;;;;5050168;28;20033;-78
2023/05/21 09:50:21;;;;;;;6.10;4.55;;;;;;;;;;5032080;28;20072;-80
2023/05/21 09:52:49;;;;;;;7.18;4.40;;;;;;;;;;5043740;28;20047;-79
2023/05/21 09:55:15;;;;;;;7.63;4.57;;;;;;;;;;5035600;28;20974;-80
2023/05/21 09:57:45;;;;;;;6.65;4.05;;;;;;;;;;5036999;28;20037;-77
2023/05/21 10:00:26;;;;;;;7.05;4.68;;;;;;;;;;5034521;28;20562;-82
2023/05/21 10:02:55;;;;;;;5.88;3.83;;;;;;;;;;5042485;28;20397;-82
2023/05/21 10:05:24;;;;;;;5.78;3.75;;;;;;;;;;5034753;28;20029;-76
2023/05/21 10:07:52;;;;;;;5.60;4.10;;;;;;;;;;5035815;28;20041;-76
2023/05/21 10:10:24;;;;;;;5.10;3.78;;;;;;;;;;5039083;28;20092;-75
2023/05/21 10:13:03;;;;;;;4.95;3.50;;;;;;;;;;5050530;28;20041;-77
2023/05/21 10:15:33;;;;;;;5.53;3.60;;;;;;;;;;5050314;28;20029;-78
2023/05/21 10:18:00;;;;;;;4.60;3.25;;;;;;;;;;5033762;28;20044;-79
2023/05/21 10:20:26;;;;;;;5.07;3.08;;;;;;;;;;5042595;28;20032;-80
2023/05/21 10:22:51;;;;;;;4.97;2.97;;;;;;;;;;5038522;28;20468;-78
2023/05/21 10:25:17;;;;;;;4.87;3.13;;;;;;;;;;5050562;28;20056;-79
2023/05/21 10:27:43;;;;;;;4.83;3.20;;;;;;;;;;5036290;28;20032;-77
2023/05/21 10:30:09;;;;;;;5.30;2.97;;;;;;;;;;5036237;28;20047;-79
2023/05/21 10:32:34;;;;;;;4.37;2.77;;;;;;;;;;5032914;28;20577;-76
2023/05/21 10:35:01;;;;;;;5.40;3.70;;;;;;;;;;5050322;28;20103;-82
2023/05/21 10:37:27;;;;;;;4.50;2.80;;;;;;;;;;5035748;28;20037;-80
2023/05/21 10:39:53;;;;;;;3.50;2.23;;;;;;;;;;5053867;28;20045;-79
2023/05/21 10:42:24;;;;;;;4.20;2.28;;;;;;;;;;5046674;28;20111;-78
2023/05/21 10:45:19;;;;;;;4.47;2.70;;;;;;;;;;5045867;28;20055;-79
2023/05/21 10:48:26;;;;;;;4.10;2.70;;;;;;;;;;5037406;28;20029;-79
2023/05/21 10:51:09;;;;;;;4.28;2.63;;;;;;;;;;5052459;28;20522;-80
2023/05/21 10:54:08;;;;;;;5.15;2.78;;;;;;;;;;5038281;28;20044;-80
2023/05/21 10:56:39;;;;;;;4.68;2.80;;;;;;;;;;5035344;28;20179;-81
2023/05/21 10:59:20;;;;;;;4.90;2.70;;;;;;;;;;5055274;28;20051;-81
2023/05/21 11:01:46;;;;;;;5.95;3.05;;;;;;;;;;5045557;28;20032;-79
2023/05/21 11:04:14;;;;;;;5.20;3.20;;;;;;;;;;5052759;28;20107;-83
2023/05/21 11:06:39;;;;;;;6.32;3.00;;;;;;;;;;5052365;28;20225;-78
2023/05/21 11:09:15;;;;;;;5.43;3.22;;;;;;;;;;5037669;28;20474;-81
2023/05/21 11:11:51;;;;;;;5.32;3.42;;;;;;;;;;5033776;28;20033;-78
2023/05/21 11:14:35;;;;;;;10.40;3.73;;;;;;;;;;5029225;28;20068;-76
2023/05/21 11:17:03;;;;;;;4.25;3.15;;;;;;;;;;5036152;28;21310;-76
2023/05/21 11:19:47;;;;;;;7.35;3.03;;;;;;;;;;5046086;28;20036;-75
2023/05/21 11:22:25;;;;;;;4.47;2.80;;;;;;;;;;5042466;28;20040;-75
2023/05/21 11:24:52;;;;;;;4.65;3.13;;;;;;;;;;5026118;28;20037;-75
2023/05/21 11:27:31;;;;;;;4.97;2.95;;;;;;;;;;5055479;28;20444;-76
2023/05/21 11:29:56;;;;;;;4.90;2.67;;;;;;;;;;5056561;28;20036;-76
2023/05/21 11:32:23;;;;;;;5.50;2.90;;;;;;;;;;5039438;28;20040;-75
2023/05/21 11:34:48;;;;;;;6.88;3.15;;;;;;;;;;5056777;28;20087;-75
2023/05/21 11:37:17;;;;;;;6.35;2.80;;;;;;;;;;5034246;28;20492;-75
2023/05/21 11:39:46;;;;;;;5.22;3.00;;;;;;;;;;5053356;28;20505;-77
2023/05/21 11:42:12;;;;;;;5.97;3.10;;;;;;;;;;5054215;28;20404;-75
2023/05/21 11:44:44;;;;;;;4.28;2.67;;;;;;;;;;5036053;28;20033;-75
2023/05/21 11:47:13;;;;;;;5.63;2.50;;;;;;;;;;5055710;28;20040;-75
2023/05/21 11:49:39;;;;;;;4.10;2.70;;;;;;;;;;5035727;28;20029;-74
2023/05/21 11:52:06;;;;;;;5.05;2.90;;;;;;;;;;5034262;28;20118;-75
2023/05/21 11:54:35;;;;;;;;;;;;;;;;;;5040567;28;20492;-75
2023/05/21 11:57:01;;;;;;;4.63;2.90;;;;;;;;;;5009220;28;19913;-75
2023/05/21 11:59:27;;;;;;;5.37;3.00;;;;;;;;;;5035155;28;20036;-75
2023/05/21 12:01:54;;;;;;;4.43;2.83;;;;;;;;;;5034965;28;20630;-75
2023/05/21 12:04:19;;;;;;;4.60;3.08;;;;;;;;;;5052596;28;20033;-76
2023/05/21 12:06:45;;;;;;;3.95;2.72;;;;;;;;;;5021866;28;20036;-76
2023/05/21 12:09:10;;;;;;;6.43;3.15;;;;;;;;;;5033629;28;20029;-76
2023/05/21 12:11:40;;;;;;;5.40;3.05;;;;;;;;;;5051449;28;20063;-76
2023/05/21 12:14:11;;;;;;;4.75;2.78;;;;;;;;;;5039691;28;20399;-77
2023/05/21 12:16:38;;;;;;;5.13;3.47;;;;;;;;;;5034287;28;20064;-76
2023/05/21 12:19:04;;;;;;;6.68;3.58;;;;;;;;;;5039231;28;20045;-75
2023/05/21 12:21:30;;;;;;;4.97;3.38;;;;;;;;;;5019403;28;20518;-75
2023/05/21 12:23:56;;;;;;;4.60;3.00;;;;;;;;;;5036574;28;20048;-76
2023/05/21 12:26:24;;;;;;;5.55;3.47;;;;;;;;;;5033185;28;20776;-76
2023/05/21 12:28:51;;;;;;;5.70;3.40;;;;;;;;;;5045401;28;20048;-76
2023/05/21 12:31:16;;;;;;;4.90;3.28;;;;;;;;;;5034935;28;20112;-76
2023/05/21 12:33:48;;;;;;;5.80;3.47;;;;;;;;;;5050325;28;20128;-75
2023/05/21 12:36:26;;;;;;;5.70;3.70;;;;;;;;;;5051615;28;20041;-75
2023/05/21 12:38:51;;;;;;;5.65;3.30;;;;;;;;;;5029099;28;20121;-76
2023/05/21 12:41:17;;;;;;;5.22;3.28;;;;;;;;;;5051622;28;20835;-76
2023/05/21 12:43:43;;;;;;;6.18;3.10;;;;;;;;;;5044310;28;20073;-76
2023/05/21 12:46:16;;;;;;;5.97;3.33;;;;;;;;;;5036308;28;20392;-76
2023/05/21 12:48:47;;;;;;;6.18;3.47;;;;;;;;;;5051223;28;20052;-76
2023/05/21 12:51:12;;;;;;;4.93;3.53;;;;;;;;;;5035598;28;20033;-76
2023/05/21 12:53:40;;;;;;;5.05;3.63;;;;;;;;;;5054723;28;20037;-77
2023/05/21 12:56:08;;;;;;;6.35;3.25;;;;;;;;;;5036239;28;20036;-77
2023/05/21 12:58:34;;;;;;;6.20;3.38;;;;;;;;;;5035010;28;20048;-76
2023/05/21 13:00:59;;;;;;;4.50;3.00;;;;;;;;;;5052071;28;20508;-76
2023/05/21 13:03:25;;;;;;;6.35;3.05;;;;;;;;;;5035257;28;20082;-76
2023/05/21 13:06:00;;;;;;;5.78;3.30;;;;;;;;;;5026927;28;20575;-76
2023/05/21 13:08:25;;;;;;;6.03;3.60;;;;;;;;;;5040418;28;20094;-77
2023/05/21 13:10:51;;;;;;;4.50;3.20;;;;;;;;;;5054754;28;20476;-76
2023/05/21 13:13:16;;;;;;;5.10;2.97;;;;;;;;;;5051288;28;20502;-76
2023/05/21 13:15:42;;;;;;;5.00;3.20;;;;;;;;;;5034383;28;20430;-76
2023/05/21 13:18:07;;;;;;;5.55;3.13;;;;;;;;;;5034056;28;20045;-76
2023/05/21 13:20:33;;;;;;;4.70;3.30;;;;;;;;;;5032478;28;20031;-77
2023/05/21 13:22:58;;;;;;;4.60;3.20;;;;;;;;;;5052858;28;20032;-76
2023/05/21 13:25:27;;;;;;;5.78;3.00;;;;;;;;;;5052577;28;20086;-77
2023/05/21 13:27:53;;;;;;;4.63;3.03;;;;;;;;;;5043670;28;20048;-75
2023/05/21 13:30:19;;;;;;;5.60;3.08;;;;;;;;;;5038365;28;20059;-76
2023/05/21 13:32:45;;;;;;;4.60;3.13;;;;;;;;;;5027446;28;20028;-76
2023/05/21 13:35:10;;;;;;;5.28;3.10;;;;;;;;;;5034045;28;20043;-76
2023/05/21 13:37:39;;;;;;;5.20;3.10;;;;;;;;;;5035135;28;20063;-78
2023/05/21 13:40:06;;;;;;;7.15;3.63;;;;;;;;;;5036679;28;20044;-76
2023/05/21 13:42:32;;;;;;;6.25;3.35;;;;;;;;;;5033403;28;20049;-77
2023/05/21 13:44:58;;;;;;;5.63;3.08;;;;;;;;;;5051248;28;20115;-76
2023/05/21 13:47:23;;;;;;;4.88;2.80;;;;;;;;;;5032774;28;20551;-77
2023/05/21 13:49:49;;;;;;;9.45;2.92;;;;;;;;;;5026521;28;20059;-76
2023/05/21 13:52:14;;;;;;;4.95;3.00;;;;;;;;;;5051795;28;20045;-76
2023/05/21 13:54:41;;;;;;;25.52;4.50;;;;;;;;;;5044847;28;20128;-78
2023/05/21 13:57:07;;;;;;;5.10;3.10;;;;;;;;;;5050038;28;20586;-76
2023/05/21 13:59:32;;;;;;;4.50;3.10;;;;;;;;;;5052155;28;20141;-76
2023/05/21 14:01:58;;;;;;;9.30;3.25;;;;;;;;;;5051572;28;20036;-76
2023/05/21 14:04:23;;;;;;;4.10;2.90;;;;;;;;;;5026700;28;20111;-76
2023/05/21 14:06:48;;;;;;;4.68;2.90;;;;;;;;;;5019734;28;20037;-77
2023/05/21 14:09:14;;;;;;;5.93;3.17;;;;;;;;;;5051956;28;20048;-76
2023/05/21 14:11:40;;;;;;;4.50;2.70;;;;;;;;;;5033237;28;20553;-77
2023/05/21 14:14:05;;;;;;;4.70;3.30;;;;;;;;;;5046660;28;20040;-76
2023/05/21 14:16:31;;;;;;;5.00;2.85;;;;;;;;;;5037256;28;20025;-76
2023/05/21 14:18:57;;;;;;;5.22;3.17;;;;;;;;;;5055702;28;20040;-76
2023/05/21 14:21:22;;;;;;;8.50;3.03;;;;;;;;;;5033715;28;20052;-76
2023/05/21 14:23:48;;;;;;;5.57;3.28;;;;;;;;;;5036379;28;20067;-76
2023/05/21 14:26:16;;;;;;;5.35;3.33;;;;;;;;;;5047568;28;20032;-77
2023/05/21 14:28:42;;;;;;;6.20;3.47;;;;;;;;;;5038353;28;20484;-76